createdAt,value
2023-04-18T00:01:49.096Z,8.53
2023-04-18T00:04:19.427Z,9.93
2023-04-18T00:06:49.658Z,10.93
2023-04-18T00:09:17.878Z,10.83
2023-04-18T00:11:46.081Z,13.40
2023-04-18T00:14:14.899Z,9.00
2023-04-18T00:16:43.298Z,9.00
2023-04-18T00:19:14.361Z,12.10
2023-04-18T00:21:44.723Z,9.00
2023-04-18T00:24:13.351Z,9.63
2023-04-18T00:26:41.618Z,11.77
2023-04-18T00:29:09.698Z,10.03
2023-04-18T00:31:37.728Z,9.80
2023-04-18T00:34:05.825Z,10.17
2023-04-18T00:36:35.357Z,10.17
2023-04-18T00:39:03.540Z,11.53
2023-04-18T00:41:31.633Z,10.50
2023-04-18T00:43:59.689Z,12.07
2023-04-18T00:46:27.817Z,9.80
2023-04-18T00:48:56.026Z,9.43
2023-04-18T00:51:24.251Z,10.67
2023-04-18T00:53:54.343Z,10.43
2023-04-18T00:56:23.822Z,12.03
2023-04-18T00:58:52.198Z,8.30
2023-04-18T01:01:20.315Z,9.13
2023-04-18T01:03:48.516Z,12.53
2023-04-18T01:06:16.875Z,12.77
2023-04-18T01:08:46.324Z,8.83
2023-04-18T01:11:15.826Z,9.40
2023-04-18T01:13:43.832Z,10.33
2023-04-18T01:16:12.814Z,11.47
2023-04-18T01:18:40.954Z,10.07
2023-04-18T01:21:09.921Z,11.13
2023-04-18T01:23:38.181Z,11.00
2023-04-18T01:26:07.869Z,11.17
2023-04-18T01:28:38.117Z,11.33
2023-04-18T01:31:06.503Z,12.97
2023-04-18T01:33:34.629Z,12.37
2023-04-18T01:36:02.890Z,11.50
2023-04-18T01:38:30.904Z,10.77
2023-04-18T01:40:58.983Z,11.43
2023-04-18T01:43:28.432Z,11.90
2023-04-18T01:45:56.487Z,12.17
2023-04-18T01:48:24.537Z,11.00
2023-04-18T01:50:52.587Z,10.63
2023-04-18T01:53:20.707Z,13.50
2023-04-18T01:55:51.407Z,11.03
2023-04-18T01:58:23.130Z,12.07
2023-04-18T02:00:54.305Z,12.97
2023-04-18T02:03:22.623Z,14.23
2023-04-18T02:05:50.898Z,14.23
2023-04-18T02:08:18.973Z,12.00
2023-04-18T02:10:47.178Z,14.50
2023-04-18T02:13:15.624Z,12.57
2023-04-18T02:15:46.102Z,12.23
2023-04-18T02:18:15.763Z,16.60
2023-04-18T02:20:43.911Z,12.50
2023-04-18T02:23:12.160Z,14.27
2023-04-18T02:25:40.251Z,11.67
2023-04-18T02:28:08.293Z,11.73
2023-04-18T02:30:36.405Z,13.47
2023-04-18T02:33:04.775Z,10.73
2023-04-18T02:35:34.272Z,13.27
2023-04-18T02:38:02.285Z,12.27
2023-04-18T02:40:30.336Z,13.60
2023-04-18T02:42:58.434Z,13.57
2023-04-18T02:45:26.548Z,11.03
2023-04-18T02:47:56.423Z,12.40
2023-04-18T02:50:25.426Z,10.23
2023-04-18T02:52:54.908Z,11.60
2023-04-18T02:55:24.468Z,11.93
2023-04-18T02:57:52.540Z,12.13
2023-04-18T03:00:20.931Z,11.73
2023-04-18T03:02:49.135Z,10.10
2023-04-18T03:05:17.779Z,12.90
2023-04-18T03:07:45.864Z,13.30
2023-04-18T03:10:15.351Z,12.90
2023-04-18T03:12:43.401Z,13.40
2023-04-18T03:15:12.188Z,13.27
2023-04-18T03:17:40.847Z,13.77
2023-04-18T03:20:10.443Z,15.40
2023-04-18T03:22:38.453Z,12.27
2023-04-18T03:25:08.016Z,12.30
2023-04-18T03:27:37.508Z,11.73
2023-04-18T03:30:06.714Z,10.43
2023-04-18T03:32:35.289Z,10.40
2023-04-18T03:35:03.883Z,11.30
2023-04-18T03:37:32.028Z,14.63
2023-04-18T03:40:00.181Z,11.03
2023-04-18T03:42:28.229Z,12.23
2023-04-18T03:44:57.682Z,9.77
2023-04-18T03:47:26.036Z,13.20
2023-04-18T03:49:54.415Z,10.70
2023-04-18T03:52:22.598Z,12.53
2023-04-18T03:54:50.729Z,13.50
2023-04-18T03:57:18.850Z,12.27
2023-04-18T03:59:48.009Z,12.27
2023-04-18T04:02:17.595Z,12.77
2023-04-18T04:04:45.777Z,10.97
2023-04-18T04:07:13.902Z,11.40
2023-04-18T04:09:41.947Z,11.60
2023-04-18T04:12:10.065Z,12.83
2023-04-18T04:14:38.086Z,13.23
2023-04-18T04:17:06.646Z,10.93
2023-04-18T04:19:36.123Z,11.80
2023-04-18T04:22:04.173Z,11.70
2023-04-18T04:24:33.249Z,12.93
2023-04-18T04:27:01.778Z,11.17
2023-04-18T04:29:30.048Z,13.83
2023-04-18T04:31:59.223Z,12.23
2023-04-18T04:34:27.404Z,12.40
2023-04-18T04:36:57.495Z,11.83
2023-04-18T04:39:25.634Z,11.20
2023-04-18T04:41:53.939Z,13.13
2023-04-18T04:44:22.388Z,14.30
2023-04-18T04:46:50.745Z,11.27
2023-04-18T04:49:18.796Z,10.90
2023-04-18T04:51:47.008Z,12.10
2023-04-18T04:54:17.001Z,13.57
2023-04-18T04:56:45.259Z,11.70
2023-04-18T04:59:13.301Z,12.73
2023-04-18T05:01:41.458Z,11.33
2023-04-18T05:04:09.652Z,13.63
2023-04-18T05:06:40.186Z,12.57
2023-04-18T05:09:08.472Z,10.60
2023-04-18T05:11:37.911Z,11.10
2023-04-18T05:14:06.169Z,11.90
2023-04-18T05:16:34.329Z,10.27
2023-04-18T05:19:02.438Z,11.13
2023-04-18T05:21:31.371Z,12.90
2023-04-18T05:23:59.409Z,10.87
2023-04-18T05:26:27.519Z,12.77
2023-04-18T05:28:57.070Z,10.80
2023-04-18T05:31:25.890Z,10.50
2023-04-18T05:33:54.078Z,14.03
2023-04-18T05:36:22.933Z,12.33
2023-04-18T05:38:51.686Z,11.60
2023-04-18T05:41:19.841Z,12.10
2023-04-18T05:44:01.860Z,10.73
2023-04-18T05:46:34.221Z,12.10
2023-04-18T05:49:03.517Z,11.07
2023-04-18T05:51:32.058Z,12.07
2023-04-18T05:54:00.172Z,11.20
2023-04-18T05:56:28.356Z,12.83
2023-04-18T05:58:56.549Z,11.83
2023-04-18T06:01:24.629Z,13.40
2023-04-18T06:03:54.867Z,11.87
2023-04-18T06:06:23.326Z,10.37
2023-04-18T06:08:51.321Z,15.70
2023-04-18T06:11:20.130Z,11.70
2023-04-18T06:13:48.382Z,11.53
2023-04-18T06:16:16.433Z,11.93
2023-04-18T06:18:44.482Z,10.37
2023-04-18T06:21:13.933Z,11.53
2023-04-18T06:23:41.931Z,9.90
2023-04-18T06:26:10.295Z,12.80
2023-04-18T06:28:38.300Z,11.30
2023-04-18T06:31:06.491Z,14.57
2023-04-18T06:33:35.773Z,11.77
2023-04-18T06:36:03.749Z,10.07
2023-04-18T06:38:33.668Z,10.00
2023-04-18T06:41:01.704Z,10.90
2023-04-18T06:43:29.716Z,12.20
2023-04-18T06:45:57.942Z,13.50
2023-04-18T06:48:25.999Z,11.47
2023-04-18T06:50:54.005Z,12.37
2023-04-18T06:53:22.216Z,12.47
2023-04-18T06:55:51.820Z,10.20
2023-04-18T06:58:19.833Z,10.60
2023-04-18T07:00:51.849Z,11.13
2023-04-18T07:03:20.261Z,12.50
2023-04-18T07:05:48.552Z,10.33
2023-04-18T07:08:16.505Z,14.70
2023-04-18T07:10:44.507Z,13.30
2023-04-18T07:13:13.870Z,12.73
2023-04-18T07:15:41.894Z,13.07
2023-04-18T07:18:10.248Z,11.37
2023-04-18T07:20:38.242Z,13.07
2023-04-18T07:23:06.560Z,12.90
2023-04-18T07:25:34.692Z,14.80
2023-04-18T07:28:02.738Z,13.50
2023-04-18T07:30:32.283Z,13.70
2023-04-18T07:33:00.313Z,14.60
2023-04-18T07:35:28.413Z,13.27
2023-04-18T07:37:56.526Z,11.77
2023-04-18T07:40:24.572Z,15.47
2023-04-18T07:42:52.538Z,14.77
2023-04-18T07:45:20.532Z,14.17
2023-04-18T07:47:49.884Z,12.43
2023-04-18T07:50:17.928Z,13.77
2023-04-18T07:52:47.745Z,12.57
2023-04-18T07:55:15.917Z,13.70
2023-04-18T07:57:45.755Z,13.13
2023-04-18T08:00:15.877Z,12.13
2023-04-18T08:02:44.017Z,13.50
2023-04-18T08:05:13.547Z,14.90
2023-04-18T08:07:41.982Z,13.33
2023-04-18T08:10:10.454Z,13.13
2023-04-18T08:12:38.944Z,13.47
2023-04-18T08:15:08.060Z,13.97
2023-04-18T08:17:36.272Z,13.00
2023-04-18T08:20:07.260Z,13.57
2023-04-18T08:22:44.066Z,14.37
2023-04-18T08:25:19.020Z,15.40
2023-04-18T08:27:47.174Z,14.40
2023-04-18T08:30:16.053Z,15.90
2023-04-18T08:32:44.211Z,13.83
2023-04-18T08:35:12.303Z,15.90
2023-04-18T08:37:41.805Z,16.40
2023-04-18T08:40:10.429Z,16.67
2023-04-18T08:42:38.758Z,16.17
2023-04-18T08:45:09.208Z,15.80
2023-04-18T08:47:37.324Z,16.00
2023-04-18T08:50:05.869Z,15.20
2023-04-18T08:52:34.188Z,15.13
2023-04-18T08:55:03.836Z,16.97
2023-04-18T08:57:33.324Z,16.97
2023-04-18T09:00:01.981Z,17.73
2023-04-18T09:02:42.305Z,14.27
2023-04-18T09:05:15.341Z,14.13
2023-04-18T09:07:43.841Z,16.03
2023-04-18T09:10:13.978Z,16.30
2023-04-18T09:12:44.635Z,15.13
2023-04-18T09:15:14.556Z,14.17
2023-04-18T09:17:46.136Z,16.00
2023-04-18T09:20:15.749Z,17.27
2023-04-18T09:22:48.470Z,14.83
2023-04-18T09:25:29.249Z,14.97
2023-04-18T09:28:00.866Z,14.80
2023-04-18T09:30:35.134Z,16.10
2023-04-18T09:33:04.390Z,13.80
2023-04-18T09:35:32.542Z,17.77
2023-04-18T09:38:00.650Z,16.13
2023-04-18T09:40:30.347Z,15.50
2023-04-18T09:42:58.491Z,17.30
2023-04-18T09:45:28.207Z,17.33
2023-04-18T09:47:56.250Z,17.33
2023-04-18T09:50:24.407Z,16.57
2023-04-18T09:52:52.438Z,15.13
2023-04-18T09:55:20.885Z,14.90
2023-04-18T09:57:53.265Z,22.83
2023-04-18T10:00:25.379Z,15.47
2023-04-18T10:02:57.908Z,18.13
2023-04-18T10:05:28.791Z,16.27
2023-04-18T10:07:57.097Z,14.27
2023-04-18T10:10:25.443Z,15.03
2023-04-18T10:12:57.198Z,15.10
2023-04-18T10:15:27.490Z,16.37
2023-04-18T10:20:30.181Z,17.47
2023-04-18T10:22:59.534Z,15.10
2023-04-18T10:25:50.478Z,17.10
2023-04-18T10:28:21.421Z,16.50
2023-04-18T10:30:57.719Z,14.33
2023-04-18T10:33:32.285Z,15.67
2023-04-18T10:36:06.407Z,15.37
2023-04-18T10:38:35.264Z,15.13
2023-04-18T10:41:21.246Z,14.67
2023-04-18T10:44:22.578Z,16.90
2023-04-18T10:47:22.213Z,13.43
2023-04-18T10:49:58.865Z,16.17
2023-04-18T10:52:27.900Z,14.87
2023-04-18T10:55:04.252Z,14.47
2023-04-18T10:57:40.133Z,17.10
2023-04-18T11:00:12.705Z,14.20
2023-04-18T11:02:41.694Z,15.23
2023-04-18T11:05:10.817Z,15.03
2023-04-18T11:07:40.551Z,14.37
2023-04-18T11:10:10.495Z,15.03
2023-04-18T11:12:40.796Z,16.00
2023-04-18T11:15:15.974Z,15.77
2023-04-18T11:17:44.443Z,14.70
2023-04-18T11:20:14.847Z,16.17
2023-04-18T11:22:48.487Z,16.93
2023-04-18T11:25:17.147Z,17.70
2023-04-18T11:27:46.165Z,15.03
2023-04-18T11:30:16.777Z,15.77
2023-04-18T11:32:45.028Z,18.97
2023-04-18T11:35:14.253Z,14.87
2023-04-18T11:37:45.371Z,16.70
2023-04-18T11:40:14.603Z,13.23
2023-04-18T11:42:43.133Z,15.80
2023-04-18T11:45:12.957Z,19.23
2023-04-18T11:47:43.852Z,15.43
2023-04-18T11:50:13.925Z,12.90
2023-04-18T11:52:42.953Z,15.33
2023-04-18T11:55:17.631Z,19.07
2023-04-18T11:57:52.353Z,16.37
2023-04-18T12:00:22.182Z,13.90
2023-04-18T12:02:52.348Z,12.53
2023-04-18T12:05:28.089Z,16.27
2023-04-18T12:07:56.614Z,16.60
2023-04-18T12:10:27.631Z,15.10
2023-04-18T12:12:58.725Z,16.13
2023-04-18T12:15:28.148Z,14.67
2023-04-18T12:18:02.086Z,14.10
2023-04-18T12:20:37.557Z,15.70
2023-04-18T12:23:05.906Z,14.60
2023-04-18T12:25:35.000Z,16.27
2023-04-18T12:28:04.578Z,15.50
2023-04-18T12:30:36.875Z,15.20
2023-04-18T12:33:09.192Z,18.27
2023-04-18T12:35:37.204Z,17.13
2023-04-18T12:38:06.797Z,14.70
2023-04-18T12:40:34.823Z,14.33
2023-04-18T12:43:03.776Z,15.60
2023-04-18T12:45:32.137Z,14.60
2023-04-18T12:48:00.467Z,15.40
2023-04-18T12:50:29.933Z,15.43
2023-04-18T12:53:02.352Z,18.80
2023-04-18T12:55:31.134Z,54.50
2023-04-18T12:57:59.553Z,23.40
2023-04-18T13:00:29.918Z,17.57
2023-04-18T13:02:59.493Z,18.30
2023-04-18T13:05:33.157Z,15.83
2023-04-18T13:08:15.350Z,21.43
2023-04-18T13:10:44.686Z,15.13
2023-04-18T13:13:12.739Z,14.13
2023-04-18T13:15:41.235Z,14.70
2023-04-18T13:18:09.411Z,15.67
2023-04-18T13:20:38.784Z,16.60
2023-04-18T13:23:06.971Z,13.63
2023-04-18T13:25:35.236Z,17.50
2023-04-18T13:28:03.246Z,15.70
2023-04-18T13:30:31.995Z,13.70
2023-04-18T13:33:00.172Z,17.43
2023-04-18T13:35:28.331Z,16.43
2023-04-18T13:37:57.669Z,16.87
2023-04-18T13:40:25.693Z,15.77
2023-04-18T13:42:53.714Z,15.77
2023-04-18T13:45:21.728Z,16.43
2023-04-18T13:47:49.793Z,14.10
2023-04-18T13:50:17.812Z,16.23
2023-04-18T13:52:46.877Z,15.40
2023-04-18T13:55:17.926Z,15.57
2023-04-18T13:57:45.926Z,19.20
2023-04-18T14:00:15.503Z,15.70
2023-04-18T14:02:43.633Z,18.17
2023-04-18T14:05:12.273Z,18.80
2023-04-18T14:07:40.574Z,19.23
2023-04-18T14:10:09.356Z,17.17
2023-04-18T14:12:39.875Z,16.70
2023-04-18T14:15:09.234Z,18.93
2023-04-18T14:17:37.286Z,19.00
2023-04-18T14:20:06.535Z,17.43
2023-04-18T14:22:34.498Z,17.27
2023-04-18T14:25:02.487Z,17.97
2023-04-18T14:27:30.505Z,18.33
2023-04-18T14:30:02.237Z,17.83
2023-04-18T14:32:31.139Z,17.33
2023-04-18T14:34:59.878Z,15.97
2023-04-18T14:37:27.867Z,16.73
2023-04-18T14:39:55.962Z,16.43
2023-04-18T15:39:00.704Z,15.17
2023-04-18T15:41:28.728Z,34.77
2023-04-18T15:43:56.698Z,17.43
2023-04-18T15:46:24.771Z,19.43
2023-04-18T15:48:52.856Z,18.40
2023-04-18T15:51:21.166Z,16.07
2023-04-18T15:53:50.342Z,15.73
2023-04-18T15:56:19.675Z,13.90
2023-04-18T15:58:47.635Z,14.17
2023-04-18T16:01:16.106Z,13.87
2023-04-18T16:03:44.193Z,11.73
2023-04-18T16:06:12.583Z,14.13
2023-04-18T16:08:40.810Z,13.67
2023-04-18T16:11:09.435Z,13.17
2023-04-18T16:13:38.786Z,14.43
2023-04-18T16:16:07.500Z,12.83
2023-04-18T16:18:35.523Z,15.57
2023-04-18T16:21:03.519Z,13.77
2023-04-18T16:23:32.461Z,13.43
2023-04-18T16:26:00.489Z,14.33
2023-04-18T16:28:29.996Z,15.60
2023-04-18T16:30:59.494Z,13.30
2023-04-18T16:33:27.628Z,12.17
2023-04-18T16:35:58.318Z,16.03
2023-04-18T16:38:27.390Z,13.70
2023-04-18T16:40:57.160Z,13.30
2023-04-18T16:43:26.861Z,12.27
2023-04-18T16:45:56.436Z,12.33
2023-04-18T16:48:26.018Z,13.97
2023-04-18T16:50:54.029Z,14.63
2023-04-18T16:53:22.832Z,13.30
2023-04-18T16:55:52.229Z,15.67
2023-04-18T16:58:21.085Z,15.67
2023-04-18T17:00:49.185Z,15.10
2023-04-18T17:03:17.314Z,12.90
2023-04-18T17:05:46.714Z,12.47
2023-04-18T17:08:14.678Z,12.00
2023-04-18T17:10:43.134Z,13.43
2023-04-18T17:13:11.373Z,11.40
2023-04-18T17:15:39.368Z,11.87
2023-04-18T17:18:07.416Z,13.07
2023-04-18T17:20:36.091Z,13.27
2023-04-18T17:23:05.523Z,16.47
2023-04-18T17:25:33.536Z,14.40
2023-04-18T17:28:02.209Z,13.47
2023-04-18T17:30:30.449Z,11.67
2023-04-18T17:32:58.646Z,11.87
2023-04-18T17:35:26.645Z,15.07
2023-04-18T17:37:54.656Z,14.67
2023-04-18T17:40:24.227Z,12.87
2023-04-18T17:42:52.340Z,15.23
2023-04-18T17:45:21.281Z,13.90
2023-04-18T17:47:49.994Z,14.30
2023-04-18T17:50:18.277Z,15.50
2023-04-18T17:52:46.541Z,15.13
2023-04-18T17:55:14.863Z,14.33
2023-04-18T17:57:44.245Z,13.20
2023-04-18T18:00:14.505Z,15.30
2023-04-18T18:02:43.031Z,13.63
2023-04-18T18:05:14.125Z,14.63
2023-04-18T18:07:43.214Z,15.17
2023-04-18T18:10:12.162Z,14.63
2023-04-18T18:12:40.976Z,13.77
2023-04-18T18:15:11.450Z,14.70
2023-04-18T18:17:40.817Z,11.87
2023-04-18T18:20:10.725Z,13.30
2023-04-18T18:22:38.725Z,14.63
2023-04-18T18:25:07.544Z,14.60
2023-04-18T18:27:36.073Z,12.23
2023-04-18T18:30:04.588Z,13.77
2023-04-18T18:32:34.003Z,15.43
2023-04-18T18:35:02.617Z,14.77
2023-04-18T18:37:30.645Z,14.23
2023-04-18T18:39:59.827Z,17.00
2023-04-18T18:42:27.875Z,11.73
2023-04-18T18:44:55.820Z,13.80
2023-04-18T18:47:23.884Z,11.67
2023-04-18T18:49:53.231Z,12.77
2023-04-18T18:52:21.821Z,11.00
2023-04-18T18:54:49.905Z,8.93
2023-04-18T18:57:17.881Z,10.07
2023-04-18T18:59:46.036Z,10.97
2023-04-18T19:02:14.175Z,11.73
2023-04-18T19:04:42.326Z,14.63
2023-04-18T19:07:11.811Z,9.03
2023-04-18T19:09:39.827Z,9.40
2023-04-18T19:12:08.360Z,7.93
2023-04-18T19:14:36.397Z,9.63
2023-04-18T19:17:05.350Z,6.53
2023-04-18T19:19:33.373Z,9.67
2023-04-18T19:22:01.458Z,9.83
2023-04-18T19:24:31.805Z,9.00
2023-04-18T19:27:00.106Z,7.73
2023-04-18T19:29:29.201Z,7.30
2023-04-18T19:31:58.756Z,8.00
2023-04-18T19:34:26.900Z,8.40
2023-04-18T19:36:54.874Z,9.07
2023-04-18T19:39:22.873Z,8.57
2023-04-18T19:41:52.287Z,7.50
2023-04-18T19:44:20.511Z,6.50
2023-04-18T19:46:48.548Z,7.07
2023-04-18T19:49:16.674Z,5.90
2023-04-18T19:51:44.856Z,8.60
2023-04-18T19:54:13.346Z,5.87
2023-04-18T19:56:41.478Z,8.60
2023-04-18T19:59:10.875Z,6.60
2023-04-18T20:01:39.025Z,7.13
2023-04-18T20:04:08.378Z,7.93
2023-04-18T20:06:37.689Z,9.63
2023-04-18T20:09:05.836Z,5.50
2023-04-18T20:11:34.021Z,5.50
2023-04-18T20:14:02.149Z,8.17
2023-04-18T20:16:32.690Z,6.57
2023-04-18T20:19:01.687Z,8.03
2023-04-18T20:21:29.732Z,7.10
2023-04-18T20:23:58.399Z,7.83
2023-04-18T20:26:26.398Z,8.97
2023-04-18T20:28:54.420Z,7.57
2023-04-18T20:31:22.392Z,7.73
2023-04-18T20:33:51.724Z,7.20
2023-04-18T20:36:19.754Z,8.33
2023-04-18T20:38:50.362Z,7.10
2023-04-18T20:41:20.749Z,7.40
2023-04-18T20:43:50.621Z,6.90
2023-04-18T20:46:18.676Z,6.00
2023-04-18T20:48:48.640Z,7.83
2023-04-18T20:51:18.055Z,5.87
2023-04-18T20:53:46.028Z,7.83
2023-04-18T20:56:14.055Z,7.00
2023-04-18T20:58:43.112Z,7.27
2023-04-18T21:01:11.379Z,8.43
2023-04-18T21:03:39.487Z,9.47
2023-04-18T21:06:07.661Z,7.67
2023-04-18T21:08:37.960Z,7.93
2023-04-18T21:11:06.394Z,6.30
2023-04-18T21:13:34.753Z,6.50
2023-04-18T21:16:03.567Z,5.37
2023-04-18T21:18:31.590Z,8.47
2023-04-18T21:20:59.609Z,7.30
2023-04-18T21:23:27.581Z,7.40
2023-04-18T21:25:56.955Z,7.07
2023-04-18T21:28:24.958Z,7.40
2023-04-18T21:30:52.959Z,7.43
2023-04-18T21:33:20.993Z,10.17
2023-04-18T21:35:49.030Z,7.23
2023-04-18T21:38:16.995Z,6.93
2023-04-18T21:40:44.951Z,5.70
2023-04-18T21:43:14.322Z,9.70
2023-04-18T21:45:42.359Z,8.70
2023-04-18T21:48:10.705Z,5.90
2023-04-18T21:50:38.690Z,6.73
2023-04-18T21:53:06.725Z,8.57
2023-04-18T21:55:34.717Z,9.33
2023-04-18T21:58:02.717Z,6.97
2023-04-18T22:00:32.088Z,6.77
2023-04-18T22:03:00.210Z,7.23
2023-04-18T22:05:28.889Z,8.47
2023-04-18T22:07:58.389Z,7.93
2023-04-18T22:10:26.898Z,6.93
2023-04-18T22:12:55.874Z,7.57
2023-04-18T22:15:24.879Z,9.10
2023-04-18T22:17:54.513Z,10.27
2023-04-18T22:20:22.777Z,9.07
2023-04-18T22:22:50.824Z,7.80
2023-04-18T22:25:19.086Z,6.30
2023-04-18T22:27:47.077Z,7.67
2023-04-18T22:30:15.849Z,9.67
2023-04-18T22:32:43.896Z,7.90
2023-04-18T22:35:13.378Z,8.37
2023-04-18T22:37:41.380Z,8.13
2023-04-18T22:40:10.196Z,6.77
2023-04-18T22:42:38.834Z,8.67
2023-04-18T22:45:08.333Z,6.30
2023-04-18T22:47:36.469Z,8.43
2023-04-18T22:50:04.659Z,8.67
2023-04-18T22:52:34.063Z,9.43
2023-04-18T22:55:03.276Z,8.80
2023-04-18T22:57:31.314Z,8.10
2023-04-18T22:59:59.340Z,8.43
2023-04-18T23:02:27.593Z,7.70
2023-04-18T23:04:58.249Z,9.20
2023-04-18T23:07:26.375Z,8.13
2023-04-18T23:09:55.749Z,9.77
2023-04-18T23:12:23.862Z,8.07
2023-04-18T23:14:51.847Z,9.00
2023-04-18T23:17:19.919Z,10.93
2023-04-18T23:19:47.927Z,10.47
2023-04-18T23:22:15.959Z,10.73
2023-04-18T23:24:43.945Z,10.57
2023-04-18T23:27:13.293Z,8.03
2023-04-18T23:29:41.309Z,8.23
2023-04-18T23:32:09.299Z,12.23
2023-04-18T23:34:37.266Z,8.57
2023-04-18T23:37:05.314Z,9.73
2023-04-18T23:39:33.291Z,10.03
2023-04-18T23:42:01.303Z,15.27
2023-04-18T23:44:31.990Z,11.33
2023-04-18T23:47:00.493Z,9.00
2023-04-18T23:49:28.650Z,10.77
2023-04-18T23:51:56.676Z,10.03
2023-04-18T23:54:24.674Z,9.37
2023-04-18T23:56:52.779Z,11.30
2023-04-18T23:59:20.817Z,11.33
